Time;durP1;ratioP1;P1;durP2;ratioP2;P2;SDS_P1;SDS_P2;PMS_P1;PMS_P2;Temp;Humidity;BMP_temperature;BMP_pressure;BME280_temperature;BME280_humidity;BME280_pressure;Samples;Min_cycle;Max_cycle;Signal;HPM_P1;HPM_P2
2023/10/15 00:00:29;;;;;;;2.60;0.90;;;;;;;16.36;100.00;99490.77;104831;1259;65953;-49
2023/10/15 00:02:56;;;;;;;3.80;1.00;;;;;;;16.37;100.00;99491.94;105550;1261;72592;-49
2023/10/15 00:05:27;;;;;;;4.10;1.00;;;;;;;16.37;100.00;99486.31;104854;1257;60559;-51
2023/10/15 00:07:57;;;;;;;2.40;0.90;;;;;;;16.38;100.00;99481.55;104737;1259;60556;-50
2023/10/15 00:10:27;;;;;;;3.20;1.00;;;;;;;16.38;100.00;99478.61;106472;1253;74284;-51
2023/10/15 00:12:55;;;;;;;7.90;1.40;;;;;;;16.38;100.00;99474.68;106096;1256;66149;-50
2023/10/15 00:15:25;;;;;;;1.90;1.10;;;;;;;16.38;100.00;99477.60;105594;1256;72771;-50
2023/10/15 00:17:56;;;;;;;3.00;1.00;;;;;;;16.36;100.00;99477.36;107008;1255;60644;-52
2023/10/15 00:20:28;;;;;;;5.50;1.00;;;;;;;16.34;100.00;99474.81;104678;1257;60713;-51
2023/10/15 00:22:56;;;;;;;2.20;1.00;;;;;;;16.32;100.00;99477.51;104884;1258;74485;-51
2023/10/15 00:25:23;;;;;;;4.50;1.00;;;;;;;16.29;100.00;99472.08;104861;1260;66857;-49
2023/10/15 00:27:54;;;;;;;2.40;0.90;;;;;;;16.27;100.00;99474.21;104893;1257;72797;-51
2023/10/15 00:30:31;;;;;;;5.40;1.00;;;;;;;16.26;100.00;99472.12;106117;1254;62144;-49
2023/10/15 00:33:03;;;;;;;3.20;1.30;;;;;;;16.25;100.00;99467.69;104933;1260;60564;-52
2023/10/15 00:35:33;;;;;;;4.30;0.80;;;;;;;16.23;100.00;99463.29;104484;1255;73920;-51
2023/10/15 00:38:11;;;;;;;2.20;0.80;;;;;;;16.22;100.00;99472.05;104801;1254;66939;-52
2023/10/15 00:40:39;;;;;;;5.30;0.80;;;;;;;16.22;100.00;99473.67;105283;1259;72704;-51
2023/10/15 00:43:06;;;;;;;2.00;0.90;;;;;;;16.22;100.00;99472.27;104594;1256;60498;-51
2023/10/15 00:45:44;;;;;;;2.90;0.90;;;;;;;16.21;100.00;99469.26;104856;1260;60513;-52
2023/10/15 00:48:13;;;;;;;5.60;1.00;;;;;;;16.21;100.00;99463.83;105659;1260;73908;-51
2023/10/15 00:50:42;;;;;;;5.30;1.00;;;;;;;16.19;100.00;99461.61;106285;1254;66325;-51
2023/10/15 00:53:21;;;;;;;3.30;1.00;;;;;;;16.19;100.00;99462.17;104638;1260;73159;-52
2023/10/15 00:56:03;;;;;;;5.40;1.20;;;;;;;16.18;100.00;99466.92;106372;1258;60495;-51
2023/10/15 00:58:34;;;;;;;4.60;0.90;;;;;;;16.16;100.00;99468.71;104782;1256;60568;-52
2023/10/15 01:06:31;;;;;;;2.70;0.80;;;;;;;16.12;100.00;99463.04;107551;1259;71498;-53
2023/10/15 01:09:08;;;;;;;3.00;0.80;;;;;;;16.11;100.00;99464.23;106829;1257;60593;-51
2023/10/15 01:11:37;;;;;;;4.70;0.70;;;;;;;16.09;100.00;99459.84;105527;1254;61807;-51
2023/10/15 01:14:05;;;;;;;7.70;0.90;;;;;;;16.08;100.00;99457.05;105158;1254;72668;-52
2023/10/15 01:16:36;;;;;;;2.70;1.30;;;;;;;16.07;100.00;99457.15;104724;1259;70073;-50
2023/10/15 01:21:57;;;;;;;2.10;0.90;;;;;;;16.04;100.00;99456.82;108869;1254;60464;-53
2023/10/15 01:24:28;;;;;;;;;;;;;;;16.02;100.00;99455.35;105266;1254;60502;-52
2023/10/15 01:29:29;;;;;;;1.70;0.80;;;;;;;15.95;100.00;99452.39;108845;1256;65603;-50
2023/10/15 01:32:03;;;;;;;2.20;0.80;;;;;;;15.93;100.00;99447.88;106230;1254;73156;-50
2023/10/15 01:34:37;;;;;;;;;;;;;;;15.90;100.00;99443.92;104889;1254;60475;-51
2023/10/15 01:37:14;;;;;;;1.80;0.80;;;;;;;15.88;100.00;99438.11;105429;1254;61101;-51
2023/10/15 01:39:47;;;;;;;1.40;0.70;;;;;;;15.87;100.00;99438.00;104714;1254;71815;-50
2023/10/15 01:45:13;;;;;;;6.80;1.10;;;;;;;15.84;100.00;99437.26;104910;1253;72709;-51
2023/10/15 01:48:31;;;;;;;2.40;0.90;;;;;;;15.81;100.00;99442.94;104911;1253;62135;-51
2023/10/15 01:50:44;;;;;;;3.10;0.70;;;;;;;15.78;100.00;99438.48;108691;1254;58895;-53
2023/10/15 01:53:11;;;;;;;6.30;1.20;;;;;;;15.75;100.00;99436.71;108928;1254;72712;-52
2023/10/15 01:55:52;;;;;;;3.90;0.90;;;;;;;15.72;100.00;99438.59;108843;1256;67100;-52
2023/10/15 01:58:24;;;;;;;6.00;1.00;;;;;;;15.68;100.00;99440.70;108777;1254;72777;-52
2023/10/15 02:00:51;;;;;;;4.00;0.80;;;;;;;15.65;100.00;99435.81;108794;1256;62178;-51
2023/10/15 02:03:19;;;;;;;5.10;1.00;;;;;;;15.63;100.00;99437.61;109000;1253;60503;-52
2023/10/15 02:05:46;;;;;;;3.00;1.00;;;;;;;15.62;100.00;99432.30;108847;1256;72550;-51
2023/10/15 02:08:23;;;;;;;1.60;0.80;;;;;;;15.60;100.00;99433.84;108978;1254;66934;-52
2023/10/15 02:10:52;;;;;;;5.10;0.80;;;;;;;15.58;100.00;99437.79;108913;1256;71703;-52
2023/10/15 02:13:26;;;;;;;2.00;1.10;;;;;;;15.56;100.00;99438.02;108900;1253;60470;-49
2023/10/15 02:15:55;;;;;;;3.00;0.80;;;;;;;15.54;100.00;99436.70;108761;1253;60110;-53
2023/10/15 02:18:23;;;;;;;6.30;1.00;;;;;;;15.51;100.00;99433.41;109023;1253;72652;-54
2023/10/15 02:23:19;;;;;;;3.00;0.90;;;;;;;15.48;100.00;99430.39;108773;1257;72807;-51
2023/10/15 02:25:58;;;;;;;2.40;1.30;;;;;;;15.45;100.00;99433.52;108914;1254;60572;-53
2023/10/15 02:28:31;;;;;;;1.50;0.70;;;;;;;15.42;100.00;99427.02;108866;1253;60535;-52
2023/10/15 02:31:10;;;;;;;3.70;0.80;;;;;;;15.39;100.00;99426.70;108991;1253;73913;-51
2023/10/15 02:33:39;;;;;;;3.30;0.90;;;;;;;15.36;100.00;99425.48;105516;1257;66155;-52
2023/10/15 02:36:09;;;;;;;1.40;0.80;;;;;;;15.32;100.00;99423.23;104639;1257;71467;-51
2023/10/15 02:38:39;;;;;;;2.30;1.00;;;;;;;15.30;100.00;99421.09;104569;1254;62410;-51
2023/10/15 02:41:07;;;;;;;4.30;1.00;;;;;;;15.27;100.00;99420.90;104558;1254;60460;-50
2023/10/15 02:43:46;;;;;;;3.70;0.80;;;;;;;15.26;100.00;99420.48;104349;1260;73776;-52
2023/10/15 02:46:23;;;;;;;2.30;0.80;;;;;;;15.24;100.00;99423.84;104632;1259;65792;-52
2023/10/15 02:48:53;;;;;;;2.50;0.90;;;;;;;15.21;100.00;99426.25;104717;1253;72930;-53
2023/10/15 02:51:24;;;;;;;5.60;0.80;;;;;;;15.19;100.00;99415.88;104623;1254;61660;-54
2023/10/15 02:53:54;;;;;;;1.80;0.90;;;;;;;15.17;100.00;99416.79;106900;1256;58641;-51
2023/10/15 02:56:22;;;;;;;1.90;0.80;;;;;;;15.15;100.00;99414.88;105740;1254;72686;-52
2023/10/15 02:58:50;;;;;;;4.10;0.90;;;;;;;15.14;100.00;99404.50;104729;1259;65648;-54
2023/10/15 03:01:25;;;;;;;2.10;1.00;;;;;;;15.11;100.00;99401.43;108775;1256;71446;-54
2023/10/15 03:03:53;;;;;;;3.50;0.90;;;;;;;15.10;100.00;99404.43;105489;1257;61772;-53
2023/10/15 03:06:25;;;;;;;3.50;1.10;;;;;;;15.08;100.00;99405.09;104651;1259;60645;-50
2023/10/15 03:08:52;;;;;;;2.50;0.80;;;;;;;15.06;100.00;99407.80;104791;1253;72597;-51
2023/10/15 03:11:20;;;;;;;3.60;0.90;;;;;;;15.03;100.00;99403.30;104626;1254;68503;-52
2023/10/15 03:13:55;;;;;;;2.50;1.00;;;;;;;15.01;100.00;99406.00;105827;1256;71936;-51
2023/10/15 03:16:35;;;;;;;2.00;0.90;;;;;;;14.99;100.00;99408.27;105611;1254;61977;-53
2023/10/15 03:19:24;;;;;;;3.00;0.90;;;;;;;14.95;100.00;99405.16;104937;1256;60520;-52
2023/10/15 03:21:58;;;;;;;3.10;1.10;;;;;;;14.93;100.00;99396.09;105048;1259;73930;-52
2023/10/15 03:24:32;;;;;;;6.30;0.90;;;;;;;14.92;100.00;99403.04;105876;1253;66851;-52
2023/10/15 03:27:00;;;;;;;1.30;0.90;;;;;;;14.89;100.00;99396.59;104874;1254;72183;-52
2023/10/15 03:29:27;;;;;;;4.50;0.80;;;;;;;14.86;100.00;99393.93;104921;1256;61751;-51
2023/10/15 03:32:04;;;;;;;1.20;0.80;;;;;;;14.83;100.00;99390.10;104917;1256;60946;-52
2023/10/15 03:34:35;;;;;;;1.60;0.80;;;;;;;14.82;100.00;99391.13;105468;1254;72943;-53
2023/10/15 03:37:05;;;;;;;3.60;1.00;;;;;;;14.78;100.00;99385.41;104767;1254;69120;-50
2023/10/15 03:42:10;;;;;;;1.70;0.70;;;;;;;14.73;100.00;99380.33;104998;1254;61670;-51
2023/10/15 03:44:43;;;;;;;1.70;1.00;;;;;;;14.69;100.00;99381.16;106549;1255;59260;-51
2023/10/15 03:47:12;;;;;;;4.20;1.00;;;;;;;14.67;100.00;99382.58;104896;1259;74298;-52
2023/10/15 03:49:39;;;;;;;2.80;0.90;;;;;;;14.65;100.00;99386.69;105109;1254;68047;-51
2023/10/15 03:52:08;;;;;;;3.00;0.90;;;;;;;14.63;100.00;99388.30;105327;1256;71562;-50
2023/10/15 03:54:37;;;;;;;3.60;0.80;;;;;;;14.61;100.00;99391.69;104892;1259;60530;-51
2023/10/15 03:57:09;;;;;;;3.20;1.00;;;;;;;14.58;100.00;99391.86;104999;1254;60498;-50
2023/10/15 03:59:44;;;;;;;4.80;1.10;;;;;;;14.55;100.00;99387.98;105616;1256;72913;-50
2023/10/15 04:02:22;;;;;;;3.10;1.10;;;;;;;14.52;100.00;99388.91;105862;1259;65853;-52
2023/10/15 04:05:11;;;;;;;2.60;1.10;;;;;;;14.50;100.00;99388.31;105332;1259;71633;-49
2023/10/15 04:07:48;;;;;;;1.50;1.00;;;;;;;14.48;100.00;99383.26;105365;1253;61642;-50
2023/10/15 04:10:35;;;;;;;4.50;1.00;;;;;;;14.46;100.00;99379.35;108527;1253;60161;-51
2023/10/15 04:13:04;;;;;;;4.00;1.00;;;;;;;14.45;100.00;99377.48;105111;1256;73810;-50
2023/10/15 04:15:35;;;;;;;1.40;0.90;;;;;;;14.43;100.00;99372.56;104984;1259;67108;-49
2023/10/15 04:18:03;;;;;;;1.90;0.90;;;;;;;14.42;100.00;99371.77;104968;1258;72651;-52
2023/10/15 04:20:35;;;;;;;2.40;1.00;;;;;;;14.39;100.00;99374.61;106206;1256;60549;-51
2023/10/15 04:23:03;;;;;;;3.10;0.90;;;;;;;14.36;100.00;99375.71;104984;1255;60562;-51
2023/10/15 04:25:32;;;;;;;2.90;1.00;;;;;;;14.34;100.00;99382.34;104796;1262;73851;-51
2023/10/15 04:28:14;;;;;;;1.80;0.90;;;;;;;14.32;100.00;99386.45;104797;1253;66282;-49
2023/10/15 04:30:42;;;;;;;3.00;0.80;;;;;;;14.31;100.00;99390.31;104938;1257;73291;-52
2023/10/15 04:33:18;;;;;;;1.60;0.80;;;;;;;14.30;100.00;99391.82;105932;1254;60497;-50
2023/10/15 04:35:48;;;;;;;1.70;0.90;;;;;;;14.28;100.00;99394.15;104900;1259;61062;-51
2023/10/15 04:38:21;;;;;;;2.30;1.00;;;;;;;14.26;100.00;99394.27;104908;1259;73917;-51
2023/10/15 04:43:26;;;;;;;2.00;1.20;;;;;;;14.24;100.00;99401.48;104962;1253;72705;-50
2023/10/15 04:45:54;;;;;;;5.00;1.20;;;;;;;14.23;100.00;99404.61;107958;1254;62205;-52
2023/10/15 04:48:26;;;;;;;1.70;1.00;;;;;;;14.23;100.00;99409.11;108908;1254;58801;-52
2023/10/15 04:50:54;;;;;;;3.30;1.20;;;;;;;14.23;100.00;99410.40;108850;1254;74807;-51
2023/10/15 04:55:49;;;;;;;3.20;1.00;;;;;;;14.23;100.00;99397.94;108988;1256;72484;-53
2023/10/15 04:58:16;;;;;;;4.20;1.00;;;;;;;14.23;100.00;99392.70;108822;1255;62227;-52
2023/10/15 05:00:50;;;;;;;5.80;1.60;;;;;;;14.24;100.00;99387.75;108883;1253;60396;-52
2023/10/15 05:03:17;;;;;;;3.30;1.40;;;;;;;14.25;100.00;99392.20;108968;1254;73892;-51
2023/10/15 05:05:45;;;;;;;5.60;1.20;;;;;;;14.27;100.00;99396.56;108867;1256;65600;-54
2023/10/15 05:08:13;;;;;;;1.90;1.30;;;;;;;14.29;100.00;99397.13;108874;1256;72773;-52
2023/10/15 05:10:50;;;;;;;3.80;1.30;;;;;;;14.31;100.00;99400.26;105768;1259;62283;-51
2023/10/15 05:13:18;;;;;;;3.10;1.20;;;;;;;14.33;100.00;99399.94;104919;1253;60313;-52
2023/10/15 05:15:49;;;;;;;6.70;1.40;;;;;;;14.37;100.00;99409.78;104745;1257;73925;-51
2023/10/15 05:18:18;;;;;;;3.20;1.40;;;;;;;14.43;100.00;99407.45;104914;1253;66741;-51
2023/10/15 05:20:50;;;;;;;1.80;1.10;;;;;;;14.48;100.00;99411.23;109019;1256;73737;-51
2023/10/15 05:23:18;;;;;;;3.30;1.30;;;;;;;14.52;100.00;99415.48;108897;1253;62359;-50
2023/10/15 05:28:47;;;;;;;5.40;1.00;;;;;;;14.64;100.00;99457.00;102126;1286;600876;-52
2023/10/15 05:31:14;;;;;;;3.60;2.30;;;;;;;14.67;100.00;99450.30;108178;1266;58891;-51
2023/10/15 05:33:42;;;;;;;3.20;1.90;;;;;;;14.72;100.00;99446.02;108194;1266;58798;-52
2023/10/15 05:36:09;;;;;;;4.00;1.50;;;;;;;14.75;100.00;99440.89;108246;1265;71035;-51
2023/10/15 05:38:36;;;;;;;3.50;1.50;;;;;;;14.79;100.00;99437.96;108324;1266;67534;-51
2023/10/15 05:41:04;;;;;;;6.00;1.80;;;;;;;14.81;100.00;99441.39;108161;1266;71761;-51
2023/10/15 05:43:31;;;;;;;5.00;1.70;;;;;;;14.85;100.00;99443.47;108229;1263;176292;-50
2023/10/15 05:45:59;;;;;;;3.00;1.30;;;;;;;14.89;100.00;99446.99;107494;1264;60411;-50
2023/10/15 05:48:26;;;;;;;2.50;1.10;;;;;;;14.91;100.00;99449.89;104250;1263;72304;-51
2023/10/15 05:50:54;;;;;;;10.20;1.50;;;;;;;14.94;100.00;99447.69;104334;1264;65734;-50
2023/10/15 05:53:21;;;;;;;4.30;1.40;;;;;;;14.99;100.00;99450.59;104191;1263;72859;-49
2023/10/15 05:55:48;;;;;;;6.20;1.50;;;;;;;15.04;100.00;99451.83;104449;1264;60616;-52
2023/10/15 05:58:16;;;;;;;3.10;1.30;;;;;;;15.09;100.00;99447.85;104202;1264;60479;-53
2023/10/15 06:00:43;;;;;;;4.00;1.10;;;;;;;15.14;100.00;99446.94;104202;1263;72187;-53
2023/10/15 06:03:11;;;;;;;4.70;2.30;;;;;;;15.20;100.00;99452.50;104271;1264;68320;-53
2023/10/15 06:05:39;;;;;;;4.10;1.40;;;;;;;15.26;100.00;99451.89;104324;1264;72781;-51
2023/10/15 06:08:07;;;;;;;3.10;1.50;;;;;;;15.30;100.00;99452.87;104852;1264;62208;-51
2023/10/15 06:10:34;;;;;;;5.50;1.70;;;;;;;15.32;100.00;99454.13;104066;1264;62307;-49
2023/10/15 06:13:02;;;;;;;3.40;1.40;;;;;;;15.35;100.00;99457.76;104310;1262;71881;-51
2023/10/15 06:15:29;;;;;;;3.00;1.40;;;;;;;15.37;100.00;99461.36;105322;1265;65500;-49
2023/10/15 06:17:58;;;;;;;4.50;2.00;;;;;;;15.41;100.00;99463.41;104118;1269;72802;-52
2023/10/15 06:20:26;;;;;;;3.80;1.50;;;;;;;15.45;100.00;99461.50;106422;1265;60435;-52
2023/10/15 06:22:55;;;;;;;4.00;1.80;;;;;;;15.48;100.00;99467.25;104417;1269;59758;-51
2023/10/15 06:25:24;;;;;;;6.30;2.00;;;;;;;15.49;100.00;99468.96;104550;1264;71812;-50
2023/10/15 06:27:52;;;;;;;3.20;2.10;;;;;;;15.53;100.00;99473.04;106194;1263;65772;-51
2023/10/15 06:30:20;;;;;;;3.70;2.20;;;;;;;15.58;100.00;99476.34;104255;1267;72714;-50
2023/10/15 06:32:52;;;;;;;3.00;2.20;;;;;;;15.64;100.00;99479.87;105026;1269;60473;-51
2023/10/15 06:35:22;;;;;;;5.10;2.20;;;;;;;15.69;100.00;99481.51;108321;1263;60561;-52
2023/10/15 06:37:51;;;;;;;4.50;1.90;;;;;;;15.73;100.00;99482.12;106983;1263;71341;-52
2023/10/15 06:40:18;;;;;;;5.80;2.30;;;;;;;15.74;100.00;99484.34;104068;1265;66315;-52
2023/10/15 06:42:51;;;;;;;3.20;2.10;;;;;;;15.74;100.00;99481.45;105844;1267;72774;-51
2023/10/15 06:45:20;;;;;;;7.10;2.50;;;;;;;15.74;100.00;99477.30;106589;1266;60979;-51
2023/10/15 06:47:51;;;;;;;8.40;3.00;;;;;;;15.72;100.00;99475.67;104025;1266;60109;-52
2023/10/15 06:50:21;;;;;;;4.20;2.50;;;;;;;15.68;100.00;99474.48;105654;1271;73149;-49
2023/10/15 06:52:53;;;;;;;4.80;2.50;;;;;;;15.66;100.00;99469.02;108362;1269;68286;-51
2023/10/15 06:55:21;;;;;;;4.80;1.90;;;;;;;15.66;100.00;99470.11;104814;1269;70475;-51
2023/10/15 06:57:49;;;;;;;7.20;2.70;;;;;;;15.66;100.00;99472.34;104132;1265;62184;-52
2023/10/15 07:00:23;;;;;;;6.40;2.80;;;;;;;15.65;100.00;99472.77;104145;1264;61134;-48
2023/10/15 07:02:51;;;;;;;;;;;;;;;15.64;100.00;99477.20;105373;1269;73567;-49
2023/10/15 07:05:20;;;;;;;7.90;2.70;;;;;;;15.61;100.00;99475.92;104751;1266;68071;-51
2023/10/15 07:07:48;;;;;;;5.10;2.50;;;;;;;15.60;100.00;99478.34;105891;1269;72714;-51
2023/10/15 07:10:16;;;;;;;6.80;2.30;;;;;;;15.58;100.00;99474.73;104603;1269;60472;-52
2023/10/15 07:12:44;;;;;;;9.50;2.20;;;;;;;15.57;100.00;99482.25;104178;1269;59740;-52
2023/10/15 07:15:15;;;;;;;7.10;3.10;;;;;;;15.55;100.00;99480.74;104176;1264;73110;-51
2023/10/15 07:17:43;;;;;;;7.20;3.20;;;;;;;15.54;100.00;99480.27;105202;1267;65675;-51
2023/10/15 07:20:16;;;;;;;6.30;2.40;;;;;;;15.55;100.00;99478.96;104704;1265;71790;-52
2023/10/15 07:22:46;;;;;;;4.50;3.60;;;;;;;15.56;100.00;99478.90;105966;1268;60434;-52
2023/10/15 07:25:18;;;;;;;8.70;4.10;;;;;;;15.56;100.00;99478.70;105068;1268;59650;-51
2023/10/15 07:27:46;;;;;;;6.10;3.40;;;;;;;15.57;100.00;99486.74;103976;1263;73213;-51
2023/10/15 07:30:13;;;;;;;6.60;4.00;;;;;;;15.57;100.00;99487.98;108316;1263;67660;-51
2023/10/15 07:32:42;;;;;;;3.90;3.20;;;;;;;15.55;100.00;99485.62;108317;1267;71445;-52
2023/10/15 07:35:13;;;;;;;8.80;4.20;;;;;;;15.50;100.00;99484.28;107519;1266;62237;-49
2023/10/15 07:37:46;;;;;;;6.30;3.80;;;;;;;15.47;100.00;99489.42;104652;1258;60084;-50
2023/10/15 07:40:17;;;;;;;7.50;3.40;;;;;;;15.45;100.00;99483.09;104603;1260;73505;-51
2023/10/15 07:42:50;;;;;;;7.40;3.80;;;;;;;15.44;100.00;99481.67;105300;1257;65665;-50
2023/10/15 07:45:18;;;;;;;8.10;4.80;;;;;;;15.46;100.00;99489.69;108686;1257;71488;-53
2023/10/15 07:47:46;;;;;;;6.20;3.30;;;;;;;15.46;100.00;99494.02;108698;1257;62135;-52
2023/10/15 07:50:16;;;;;;;5.70;3.50;;;;;;;15.47;100.00;99492.51;105518;1257;59948;-52
2023/10/15 07:52:45;;;;;;;5.70;3.50;;;;;;;15.47;100.00;99496.09;105625;1257;71983;-49
2023/10/15 07:55:13;;;;;;;6.20;2.90;;;;;;;15.47;100.00;99485.79;104821;1257;65700;-51
2023/10/15 07:57:41;;;;;;;4.80;3.60;;;;;;;15.48;100.00;99486.44;104427;1263;72674;-51
2023/10/15 08:00:15;;;;;;;8.40;3.80;;;;;;;15.49;100.00;99487.82;104628;1263;62748;-50
2023/10/15 08:02:43;;;;;;;8.60;4.00;;;;;;;15.52;100.00;99488.34;108707;1257;58730;-53
2023/10/15 08:05:12;;;;;;;6.20;3.50;;;;;;;15.55;100.00;99483.83;108768;1260;71375;-53
2023/10/15 08:07:41;;;;;;;5.90;4.90;;;;;;;15.58;100.00;99479.20;108747;1257;67548;-53
2023/10/15 08:10:09;;;;;;;6.30;3.60;;;;;;;15.62;100.00;99476.03;108758;1256;72652;-51
2023/10/15 08:12:37;;;;;;;4.60;3.60;;;;;;;15.65;100.00;99480.93;108855;1257;60506;-53
2023/10/15 08:15:06;;;;;;;5.10;3.30;;;;;;;15.66;100.00;99488.03;108645;1257;60259;-52
2023/10/15 08:17:34;;;;;;;7.30;3.50;;;;;;;15.66;100.00;99498.39;108697;1257;73902;-52
2023/10/15 08:20:04;;;;;;;6.10;3.90;;;;;;;15.64;100.00;99507.02;108800;1257;66942;-51
2023/10/15 08:22:31;;;;;;;5.00;3.00;;;;;;;15.64;100.00;99513.55;108768;1257;71529;-51
2023/10/15 08:24:59;;;;;;;6.90;3.90;;;;;;;15.64;100.00;99511.38;108792;1257;61830;-53
2023/10/15 08:27:26;;;;;;;5.30;4.40;;;;;;;15.65;100.00;99507.98;108723;1261;61143;-51
2023/10/15 08:29:54;;;;;;;5.20;3.90;;;;;;;15.67;100.00;99510.21;108752;1257;71856;-53
2023/10/15 08:32:22;;;;;;;10.00;4.30;;;;;;;15.68;100.00;99505.77;108760;1260;67508;-51
2023/10/15 08:34:49;;;;;;;5.90;4.50;;;;;;;15.70;100.00;99510.89;108759;1257;73203;-52
2023/10/15 08:37:17;;;;;;;8.10;3.90;;;;;;;15.73;100.00;99516.32;105938;1260;61154;-51
2023/10/15 08:39:44;;;;;;;4.90;4.10;;;;;;;15.75;100.00;99522.31;104494;1257;61021;-49
2023/10/15 08:42:13;;;;;;;7.70;3.90;;;;;;;15.76;100.00;99519.66;104652;1258;73043;-53
2023/10/15 08:44:41;;;;;;;5.60;3.30;;;;;;;15.78;100.00;99521.88;104579;1257;67398;-52
2023/10/15 08:47:10;;;;;;;5.80;4.20;;;;;;;15.80;100.00;99523.02;104400;1257;73189;-51
2023/10/15 08:49:46;;;;;;;7.00;3.80;;;;;;;15.82;100.00;99520.65;105155;1261;60445;-51
2023/10/15 08:52:14;;;;;;;9.50;4.50;;;;;;;15.83;100.00;99523.46;108625;1257;60577;-53
2023/10/15 08:54:43;;;;;;;5.00;3.40;;;;;;;15.85;100.00;99523.38;108676;1262;71876;-52
2023/10/15 08:57:10;;;;;;;5.10;4.10;;;;;;;15.86;100.00;99525.29;105097;1262;67187;-52
2023/10/15 08:59:38;;;;;;;5.20;3.90;;;;;;;15.87;100.00;99525.00;104533;1262;73262;-51
2023/10/15 09:02:06;;;;;;;7.50;3.80;;;;;;;15.88;100.00;99529.09;104485;1257;61735;-50
2023/10/15 09:04:34;;;;;;;5.20;2.80;;;;;;;15.88;100.00;99524.92;107814;1257;60097;-52
2023/10/15 09:07:02;;;;;;;4.20;2.90;;;;;;;15.88;100.00;99528.59;104476;1262;73668;-54
2023/10/15 09:09:32;;;;;;;4.50;2.20;;;;;;;15.88;100.00;99532.94;104498;1257;67721;-52
2023/10/15 09:12:00;;;;;;;5.30;2.30;;;;;;;15.87;100.00;99538.23;106118;1257;73293;-51
2023/10/15 09:14:44;;;;;;;3.40;1.90;;;;;;;15.85;100.00;99539.27;104605;1257;63883;-50
2023/10/15 09:17:14;;;;;;;2.70;1.70;;;;;;;15.84;100.00;99533.76;104752;1257;60459;-53
2023/10/15 09:19:43;;;;;;;2.00;1.40;;;;;;;15.82;100.00;99536.25;104942;1257;73075;-51
2023/10/15 09:22:17;;;;;;;3.10;1.60;;;;;;;15.81;100.00;99537.41;104356;1257;67243;-50
2023/10/15 09:24:44;;;;;;;2.90;1.40;;;;;;;15.79;100.00;99539.55;104707;1257;71492;-52
2023/10/15 09:27:13;;;;;;;3.80;1.60;;;;;;;15.78;100.00;99536.55;104448;1260;60470;-52
2023/10/15 09:29:41;;;;;;;4.20;1.40;;;;;;;15.78;100.00;99545.98;104507;1263;59802;-51
2023/10/15 09:32:09;;;;;;;1.20;1.10;;;;;;;15.75;100.00;99547.58;104467;1258;71784;-50
2023/10/15 09:34:37;;;;;;;4.00;1.50;;;;;;;15.74;100.00;99545.66;104694;1257;66642;-52
2023/10/15 09:37:07;;;;;;;2.20;1.10;;;;;;;15.73;100.00;99547.80;104703;1263;73123;-49
2023/10/15 09:39:35;;;;;;;2.30;1.30;;;;;;;15.70;100.00;99554.85;104834;1258;62854;-49
2023/10/15 09:42:03;;;;;;;2.60;1.30;;;;;;;15.67;100.00;99554.34;104509;1263;60469;-49
2023/10/15 09:44:32;;;;;;;2.00;1.10;;;;;;;15.64;100.00;99550.78;104650;1257;74076;-50
2023/10/15 09:47:03;;;;;;;2.10;1.20;;;;;;;15.63;100.00;99552.35;105388;1258;65606;-51
2023/10/15 09:49:33;;;;;;;1.70;1.20;;;;;;;15.60;100.00;99556.86;104466;1262;72682;-53
2023/10/15 09:52:10;;;;;;;4.50;1.40;;;;;;;15.57;100.00;99551.87;106075;1262;62660;-51
2023/10/15 09:54:37;;;;;;;1.50;1.40;;;;;;;15.51;100.00;99552.36;104867;1258;62178;-52
2023/10/15 09:57:05;;;;;;;1.50;1.10;;;;;;;15.48;100.00;99549.01;104506;1257;72768;-52
2023/10/15 09:59:33;;;;;;;3.10;1.10;;;;;;;15.45;100.00;99546.34;108729;1257;65765;-52
2023/10/15 10:02:05;;;;;;;2.00;1.40;;;;;;;15.42;100.00;99547.22;108441;1258;72886;-48
2023/10/15 10:05:14;;;;;;;3.10;1.20;;;;;;;15.42;100.00;99546.73;104504;1263;60656;-50
2023/10/15 10:08:12;;;;;;;1.90;1.10;;;;;;;15.38;100.00;99547.39;104383;1257;60551;-51
2023/10/15 10:11:00;;;;;;;2.00;0.90;;;;;;;15.35;100.00;99550.88;106412;1257;73762;-53
2023/10/15 10:14:00;;;;;;;2.00;1.30;;;;;;;15.34;100.00;99556.73;104729;1257;65831;-50
2023/10/15 10:16:28;;;;;;;1.80;1.00;;;;;;;15.32;100.00;99561.73;106249;1257;72776;-49
2023/10/15 10:18:55;;;;;;;2.90;1.60;;;;;;;15.30;100.00;99556.42;106202;1258;60425;-48
2023/10/15 10:21:32;;;;;;;3.30;1.10;;;;;;;15.31;100.00;99556.93;104649;1257;61193;-49
2023/10/15 10:24:02;;;;;;;2.80;1.40;;;;;;;15.33;100.00;99555.16;104400;1258;72628;-49
2023/10/15 10:26:32;;;;;;;2.40;1.70;;;;;;;15.33;100.00;99550.79;107178;1257;66364;-51
2023/10/15 10:29:01;;;;;;;3.30;1.30;;;;;;;15.33;100.00;99554.59;104557;1258;72715;-49
2023/10/15 10:31:33;;;;;;;1.60;0.80;;;;;;;15.32;100.00;99551.60;104720;1257;60300;-52
2023/10/15 10:34:04;;;;;;;3.40;1.00;;;;;;;15.30;100.00;99555.22;106069;1257;59250;-50
2023/10/15 10:36:37;;;;;;;1.10;1.00;;;;;;;15.27;100.00;99555.38;104609;1258;72750;-49
2023/10/15 10:39:07;;;;;;;1.80;1.20;;;;;;;15.25;100.00;99550.30;104153;1257;67626;-48
2023/10/15 10:42:00;;;;;;;3.60;1.20;;;;;;;15.23;100.00;99545.55;104308;1257;72779;-52
2023/10/15 10:44:28;;;;;;;4.30;1.60;;;;;;;15.22;100.00;99547.97;104529;1257;61794;-51
2023/10/15 10:46:59;;;;;;;3.70;1.50;;;;;;;15.23;100.00;99551.20;107150;1255;59224;-50
2023/10/15 10:49:34;;;;;;;3.30;1.70;;;;;;;15.21;100.00;99549.13;107937;1256;72628;-50
2023/10/15 10:52:18;;;;;;;2.10;1.60;;;;;;;15.21;100.00;99549.52;105276;1257;67431;-51
2023/10/15 10:54:45;;;;;;;2.20;1.20;;;;;;;15.20;100.00;99552.98;108752;1262;72746;-52
2023/10/15 10:57:18;;;;;;;2.00;1.60;;;;;;;15.21;100.00;99559.10;108738;1256;59476;-52
2023/10/15 10:59:46;;;;;;;2.00;1.40;;;;;;;15.23;100.00;99557.11;108726;1256;60280;-54
2023/10/15 11:02:13;;;;;;;1.40;1.30;;;;;;;15.24;100.00;99551.98;108773;1255;74625;-54
2023/10/15 11:04:42;;;;;;;1.90;1.20;;;;;;;15.25;100.00;99551.00;108577;1257;67304;-52
2023/10/15 11:07:11;;;;;;;1.80;1.30;;;;;;;15.25;100.00;99550.28;108656;1257;71471;-52
2023/10/15 11:09:39;;;;;;;1.10;0.90;;;;;;;15.24;100.00;99545.81;108712;1257;61016;-53
2023/10/15 11:12:09;;;;;;;1.40;0.90;;;;;;;15.25;100.00;99547.77;108904;1256;60109;-52
2023/10/15 11:14:37;;;;;;;1.20;1.10;;;;;;;15.26;100.00;99556.91;108641;1254;72680;-52
2023/10/15 11:17:05;;;;;;;1.10;1.00;;;;;;;15.27;100.00;99557.20;108767;1258;66199;-52
2023/10/15 11:19:32;;;;;;;1.10;0.80;;;;;;;15.28;100.00;99555.67;108735;1256;71456;-52
2023/10/15 11:22:00;;;;;;;1.90;0.90;;;;;;;15.28;100.00;99548.84;108707;1257;58965;-49
2023/10/15 11:24:27;;;;;;;1.30;1.10;;;;;;;15.27;100.00;99550.00;108709;1257;58790;-51
2023/10/15 11:26:55;;;;;;;1.50;0.80;;;;;;;15.24;100.00;99549.97;108626;1257;72647;-50
2023/10/15 11:29:23;;;;;;;1.30;0.70;;;;;;;15.23;100.00;99553.70;108734;1257;66861;-51
2023/10/15 11:31:55;;;;;;;0.80;0.60;;;;;;;15.20;100.00;99558.11;108665;1257;71468;-49
2023/10/15 11:34:24;;;;;;;0.80;0.60;;;;;;;15.15;100.00;99557.33;108750;1257;60487;-49
2023/10/15 11:36:55;;;;;;;0.60;0.50;;;;;;;15.11;100.00;99552.71;108727;1260;60159;-50
2023/10/15 11:39:25;;;;;;;1.80;0.50;;;;;;;15.07;100.00;99556.95;108732;1256;73758;-49
2023/10/15 11:41:56;;;;;;;0.90;0.50;;;;;;;15.04;100.00;99562.23;105877;1263;66555;-52
2023/10/15 11:44:30;;;;;;;0.60;0.40;;;;;;;15.02;100.00;99574.71;104721;1257;71470;-52
2023/10/15 11:47:08;;;;;;;1.40;0.70;;;;;;;14.93;100.00;99568.42;107907;1262;61673;-51
2023/10/15 11:49:42;;;;;;;0.70;0.50;;;;;;;14.81;100.00;99571.08;104647;1256;60540;-51
2023/10/15 11:52:14;;;;;;;0.80;0.40;;;;;;;14.69;100.00;99570.48;104582;1262;74286;-50
2023/10/15 11:54:43;;;;;;;0.60;0.40;;;;;;;14.55;100.00;99573.05;104638;1262;66174;-51
2023/10/15 11:57:16;;;;;;;1.40;0.40;;;;;;;14.42;100.00;99565.80;108615;1258;71555;-50
2023/10/15 11:59:48;;;;;;;1.10;0.40;;;;;;;14.29;100.00;99562.83;107549;1260;61686;-52